createdAt,value
2018-07-24T00:02:01.119Z,15.33
2018-07-24T00:04:13.329Z,15.20
2018-07-24T00:06:25.623Z,15.43
2018-07-24T00:08:37.870Z,15.93
2018-07-24T00:10:50.093Z,15.63
2018-07-24T00:13:02.263Z,14.50
2018-07-24T00:15:14.520Z,15.47
2018-07-24T00:17:26.740Z,16.13
2018-07-24T00:19:38.963Z,14.60
2018-07-24T00:21:51.168Z,15.53
2018-07-24T00:24:03.386Z,14.70
2018-07-24T00:26:15.676Z,15.53
2018-07-24T00:28:27.930Z,15.33
2018-07-24T00:30:40.210Z,14.73
2018-07-24T00:32:52.414Z,15.77
2018-07-24T00:35:04.702Z,15.47
2018-07-24T00:37:16.898Z,16.43
2018-07-24T00:39:29.154Z,14.87
2018-07-24T00:41:41.374Z,15.80
2018-07-24T00:43:53.594Z,16.10
2018-07-24T00:46:05.863Z,16.27
2018-07-24T00:48:18.079Z,16.10
2018-07-24T00:50:30.334Z,16.03
2018-07-24T00:52:42.647Z,14.97
2018-07-24T00:54:54.903Z,15.90
2018-07-24T00:57:07.237Z,16.47
2018-07-24T00:59:19.588Z,16.50
2018-07-24T01:01:31.854Z,16.30
2018-07-24T01:03:44.095Z,16.20
2018-07-24T01:05:56.364Z,14.70
2018-07-24T01:08:08.607Z,15.97
2018-07-24T01:10:20.863Z,16.10
2018-07-24T01:12:33.169Z,14.70
2018-07-24T01:14:45.405Z,15.70
2018-07-24T01:16:57.699Z,15.50
2018-07-24T01:19:09.938Z,16.23
2018-07-24T01:21:22.184Z,15.13
2018-07-24T01:23:35.243Z,15.93
2018-07-24T01:25:47.474Z,16.27
2018-07-24T01:27:59.746Z,15.33
2018-07-24T01:30:11.990Z,15.57
2018-07-24T01:32:24.275Z,16.43
2018-07-24T01:34:36.569Z,16.93
2018-07-24T01:36:48.808Z,15.57
2018-07-24T01:39:01.088Z,15.77
2018-07-24T01:41:13.308Z,15.57
2018-07-24T01:43:25.550Z,14.83
2018-07-24T01:45:37.766Z,15.63
2018-07-24T01:47:49.986Z,16.27
2018-07-24T01:50:02.330Z,16.10
2018-07-24T01:52:14.565Z,16.80
2018-07-24T01:54:26.812Z,16.23
2018-07-24T01:56:39.094Z,15.63
2018-07-24T01:58:51.311Z,16.87
2018-07-24T02:01:03.555Z,16.23
2018-07-24T02:03:15.811Z,16.43
2018-07-24T02:05:28.115Z,16.20
2018-07-24T02:07:40.897Z,17.10
2018-07-24T02:09:53.115Z,16.83
2018-07-24T02:12:05.383Z,17.93
2018-07-24T02:14:17.656Z,16.97
2018-07-24T02:16:29.898Z,17.60
2018-07-24T02:18:42.110Z,16.83
2018-07-24T02:20:54.286Z,16.90
2018-07-24T02:23:06.568Z,17.60
2018-07-24T02:25:18.771Z,17.80
2018-07-24T02:27:31.079Z,17.73
2018-07-24T02:29:43.362Z,17.37
2018-07-24T02:31:55.633Z,17.40
2018-07-24T02:34:07.887Z,17.73
2018-07-24T02:36:20.088Z,17.30
2018-07-24T02:38:32.372Z,17.30
2018-07-24T02:40:44.661Z,18.00
2018-07-24T02:42:56.927Z,17.40
2018-07-24T02:45:09.204Z,17.97
2018-07-24T02:47:21.427Z,15.73
2018-07-24T02:49:33.709Z,16.87
2018-07-24T02:51:45.950Z,17.80
2018-07-24T02:53:58.238Z,16.93
2018-07-24T02:56:10.482Z,17.20
2018-07-24T02:58:22.755Z,17.17
2018-07-24T03:00:35.008Z,14.53
2018-07-24T03:02:47.277Z,18.07
2018-07-24T03:04:59.578Z,18.33
2018-07-24T03:07:11.789Z,17.73
2018-07-24T03:09:24.044Z,17.77
2018-07-24T03:11:36.531Z,16.23
2018-07-24T03:13:48.780Z,17.37
2018-07-24T03:16:01.008Z,17.47
2018-07-24T03:18:13.222Z,18.30
2018-07-24T03:20:25.452Z,17.87
2018-07-24T03:22:37.676Z,17.03
2018-07-24T03:24:49.975Z,17.40
2018-07-24T03:27:02.231Z,17.57
2018-07-24T03:29:15.174Z,17.57
2018-07-24T03:31:27.397Z,17.90
2018-07-24T03:33:39.631Z,18.10
2018-07-24T03:35:51.933Z,17.90
2018-07-24T03:38:04.186Z,18.40
2018-07-24T03:40:16.454Z,17.67
2018-07-24T03:42:28.671Z,17.27
2018-07-24T03:44:40.911Z,16.37
2018-07-24T03:46:53.955Z,17.03
2018-07-24T03:49:06.711Z,16.87
2018-07-24T03:51:19.004Z,16.90
2018-07-24T03:53:31.338Z,17.30
2018-07-24T03:55:43.604Z,17.10
2018-07-24T03:57:55.941Z,17.93
2018-07-24T04:00:08.185Z,17.83
2018-07-24T04:02:21.315Z,16.67
2018-07-24T04:04:33.571Z,17.27
2018-07-24T04:06:45.811Z,16.83
2018-07-24T04:08:58.035Z,15.90
2018-07-24T04:11:10.276Z,16.47
2018-07-24T04:13:22.500Z,17.57
2018-07-24T04:15:34.719Z,18.40
2018-07-24T04:17:47.981Z,19.00
2018-07-24T04:20:00.209Z,17.53
2018-07-24T04:22:12.444Z,17.97
2018-07-24T04:24:25.392Z,17.47
2018-07-24T04:26:37.642Z,18.03
2018-07-24T04:28:49.868Z,18.53
2018-07-24T04:31:02.170Z,18.47
2018-07-24T04:33:14.458Z,19.17
2018-07-24T04:35:26.787Z,18.03
2018-07-24T04:37:39.030Z,18.97
2018-07-24T04:39:51.318Z,18.97
2018-07-24T04:42:03.515Z,18.47
2018-07-24T04:44:15.746Z,19.50
2018-07-24T04:46:27.940Z,19.03
2018-07-24T04:48:40.225Z,19.97
2018-07-24T04:50:52.574Z,19.30
2018-07-24T04:53:05.136Z,17.90
2018-07-24T04:55:17.398Z,17.03
2018-07-24T04:57:29.667Z,19.00
2018-07-24T04:59:41.955Z,15.40
2018-07-24T05:01:54.245Z,14.87
2018-07-24T05:04:06.592Z,17.10
2018-07-24T05:06:18.922Z,15.33
2018-07-24T05:08:31.140Z,18.53
2018-07-24T05:10:44.397Z,15.47
2018-07-24T05:12:57.121Z,17.70
2018-07-24T05:15:09.380Z,18.17
2018-07-24T05:17:21.639Z,17.37
2018-07-24T05:19:33.963Z,19.13
2018-07-24T05:21:46.223Z,13.73
2018-07-24T05:23:58.461Z,14.63
2018-07-24T05:26:10.703Z,11.40
2018-07-24T05:28:22.947Z,14.93
2018-07-24T05:30:35.249Z,17.57
2018-07-24T05:32:47.499Z,18.43
2018-07-24T05:34:59.725Z,16.47
2018-07-24T05:37:12.930Z,17.67
2018-07-24T05:39:25.164Z,18.20
2018-07-24T05:41:37.415Z,18.57
2018-07-24T05:43:49.666Z,18.00
2018-07-24T05:46:01.934Z,18.50
2018-07-24T05:48:14.724Z,17.63
2018-07-24T05:50:26.964Z,17.20
2018-07-24T05:52:39.192Z,18.83
2018-07-24T05:54:51.439Z,18.13
2018-07-24T05:57:03.729Z,18.20
2018-07-24T05:59:15.991Z,18.83
2018-07-24T06:01:28.271Z,18.03
2018-07-24T06:03:40.632Z,18.10
2018-07-24T06:05:52.884Z,18.73
2018-07-24T06:08:05.155Z,17.63
2018-07-24T06:10:17.388Z,17.90
2018-07-24T06:12:30.190Z,16.73
2018-07-24T06:14:43.039Z,15.27
2018-07-24T06:16:55.410Z,14.57
2018-07-24T06:19:07.669Z,16.37
2018-07-24T06:21:19.916Z,14.17
2018-07-24T06:23:32.328Z,16.67
2018-07-24T06:25:44.533Z,14.03
2018-07-24T06:27:57.105Z,15.67
2018-07-24T06:30:09.406Z,15.27
2018-07-24T06:32:21.625Z,14.37
2018-07-24T06:34:33.880Z,15.47
2018-07-24T06:36:46.111Z,13.70
2018-07-24T06:38:58.388Z,14.83
2018-07-24T06:41:10.612Z,13.83
2018-07-24T06:43:22.870Z,13.07
2018-07-24T06:45:35.496Z,14.43
2018-07-24T06:47:47.731Z,13.93
2018-07-24T06:50:00.099Z,14.43
2018-07-24T06:52:12.320Z,13.47
2018-07-24T06:54:24.692Z,13.53
2018-07-24T06:56:36.991Z,14.40
2018-07-24T06:58:49.183Z,14.20
2018-07-24T07:01:01.472Z,12.90
2018-07-24T07:03:13.749Z,12.70
2018-07-24T07:05:26.048Z,12.47
2018-07-24T07:07:38.604Z,11.83
2018-07-24T07:09:50.824Z,12.37
2018-07-24T07:12:03.116Z,12.83
2018-07-24T07:14:15.384Z,12.10
2018-07-24T07:16:27.622Z,11.43
2018-07-24T07:18:39.921Z,11.67
2018-07-24T07:20:52.179Z,12.03
2018-07-24T07:23:04.427Z,11.43
2018-07-24T07:25:16.673Z,11.30
2018-07-24T07:27:28.935Z,11.13
2018-07-24T07:29:41.159Z,11.77
2018-07-24T07:31:53.421Z,12.50
2018-07-24T07:34:05.808Z,11.40
2018-07-24T07:36:18.099Z,11.90
2018-07-24T07:38:30.315Z,11.90
2018-07-24T07:40:42.655Z,11.20
2018-07-24T07:42:54.955Z,10.67
2018-07-24T07:45:07.203Z,11.60
2018-07-24T07:47:19.443Z,12.47
2018-07-24T07:49:31.664Z,11.23
2018-07-24T07:51:43.896Z,11.17
2018-07-24T07:53:59.834Z,11.70
2018-07-24T07:56:12.133Z,12.00
2018-07-24T07:58:24.446Z,10.90
2018-07-24T08:00:36.707Z,11.57
2018-07-24T08:02:48.996Z,11.90
2018-07-24T08:05:01.629Z,10.87
2018-07-24T08:07:13.866Z,12.00
2018-07-24T08:09:26.086Z,11.23
2018-07-24T08:11:38.308Z,11.37
2018-07-24T08:13:50.535Z,12.13
2018-07-24T08:16:02.828Z,10.32
2018-07-24T08:18:15.027Z,11.63
2018-07-24T08:20:27.283Z,11.30
2018-07-24T08:22:39.546Z,11.18
2018-07-24T08:24:51.990Z,11.40
2018-07-24T08:27:04.350Z,11.60
2018-07-24T08:29:16.608Z,10.90
2018-07-24T08:31:28.844Z,11.15
2018-07-24T08:33:41.155Z,9.85
2018-07-24T08:35:53.381Z,10.40
2018-07-24T08:38:05.775Z,10.88
2018-07-24T08:40:18.117Z,10.55
2018-07-24T08:42:30.396Z,9.40
2018-07-24T08:44:42.656Z,10.00
2018-07-24T08:46:54.902Z,10.60
2018-07-24T08:49:07.211Z,9.93
2018-07-24T08:51:19.415Z,8.88
2018-07-24T08:53:32.040Z,9.45
2018-07-24T08:55:44.187Z,9.60
2018-07-24T08:57:56.288Z,8.38
2018-07-24T09:00:08.560Z,8.60
2018-07-24T09:02:20.831Z,7.85
2018-07-24T09:04:33.072Z,7.65
2018-07-24T09:06:45.446Z,7.67
2018-07-24T09:08:57.735Z,7.60
2018-07-24T09:11:09.967Z,7.83
2018-07-24T09:13:22.209Z,8.03
2018-07-24T09:15:34.536Z,7.72
2018-07-24T09:17:46.701Z,7.83
2018-07-24T09:19:58.989Z,7.67
2018-07-24T09:22:11.251Z,7.92
2018-07-24T09:24:23.487Z,7.90
2018-07-24T09:26:35.710Z,7.75
2018-07-24T09:28:48.001Z,7.10
2018-07-24T09:31:00.298Z,8.28
2018-07-24T09:33:12.550Z,8.58
2018-07-24T09:35:24.871Z,8.13
2018-07-24T09:37:37.070Z,8.00
2018-07-24T09:39:49.324Z,7.83
2018-07-24T09:42:01.593Z,7.65
2018-07-24T09:44:13.879Z,7.17
2018-07-24T09:46:26.123Z,8.03
2018-07-24T09:48:38.619Z,7.87
2018-07-24T09:50:50.892Z,8.30
2018-07-24T09:53:03.102Z,7.97
2018-07-24T09:55:15.359Z,8.20
2018-07-24T09:57:27.573Z,8.03
2018-07-24T09:59:39.832Z,7.92
2018-07-24T10:01:52.163Z,8.18
2018-07-24T10:04:04.555Z,7.35
2018-07-24T10:06:16.811Z,7.62
2018-07-24T10:08:29.051Z,7.62
2018-07-24T10:10:41.308Z,7.75
2018-07-24T10:12:53.677Z,8.05
2018-07-24T10:15:05.883Z,8.05
2018-07-24T10:17:18.181Z,7.45
2018-07-24T10:19:30.449Z,6.72
2018-07-24T10:21:42.678Z,7.92
2018-07-24T10:23:54.979Z,7.33
2018-07-24T10:26:07.268Z,7.20
2018-07-24T10:28:19.525Z,7.40
2018-07-24T10:30:31.800Z,7.22
2018-07-24T10:32:44.028Z,7.42
2018-07-24T10:34:56.364Z,7.40
2018-07-24T10:37:09.007Z,6.60
2018-07-24T10:39:21.250Z,6.92
2018-07-24T10:41:33.503Z,7.03
2018-07-24T10:43:45.744Z,6.87
2018-07-24T10:45:58.013Z,6.67
2018-07-24T10:48:10.348Z,7.15
2018-07-24T10:50:22.603Z,6.80
2018-07-24T10:52:34.946Z,7.15
2018-07-24T10:54:47.314Z,6.75
2018-07-24T10:56:59.595Z,6.90
2018-07-24T10:59:11.882Z,7.42
2018-07-24T11:01:24.179Z,7.70
2018-07-24T11:03:36.633Z,7.00
2018-07-24T11:05:48.953Z,7.33
2018-07-24T11:08:01.168Z,7.25
2018-07-24T11:10:13.426Z,7.45
2018-07-24T11:12:25.718Z,7.40
2018-07-24T11:14:38.047Z,7.92
2018-07-24T11:16:50.314Z,7.47
2018-07-24T11:19:02.524Z,7.95
2018-07-24T11:21:14.771Z,7.80
2018-07-24T11:23:27.077Z,8.05
2018-07-24T11:25:39.897Z,8.13
2018-07-24T11:27:52.182Z,8.48
2018-07-24T11:30:05.158Z,8.10
2018-07-24T11:32:17.649Z,8.03
2018-07-24T11:34:29.902Z,7.85
2018-07-24T11:36:42.176Z,7.45
2018-07-24T11:38:54.464Z,7.30
2018-07-24T11:41:06.746Z,7.87
2018-07-24T11:43:19.027Z,6.90
2018-07-24T11:45:31.266Z,8.45
2018-07-24T11:47:43.546Z,7.97
2018-07-24T11:49:55.818Z,7.42
2018-07-24T11:52:08.063Z,7.87
2018-07-24T11:54:20.308Z,8.60
2018-07-24T11:56:32.575Z,7.53
2018-07-24T11:58:44.868Z,7.50
2018-07-24T12:00:57.086Z,7.28
2018-07-24T12:03:09.404Z,7.12
2018-07-24T12:05:21.687Z,6.85
2018-07-24T12:07:33.929Z,7.22
2018-07-24T12:09:46.102Z,7.00
2018-07-24T12:11:58.371Z,6.67
2018-07-24T12:14:10.733Z,6.65
2018-07-24T12:16:23.024Z,6.42
2018-07-24T12:18:35.315Z,7.33
2018-07-24T12:20:47.580Z,6.53
2018-07-24T12:22:59.864Z,6.42
2018-07-24T12:25:12.082Z,6.37
2018-07-24T12:27:24.351Z,6.92
2018-07-24T12:29:36.635Z,6.33
2018-07-24T12:31:48.871Z,6.80
2018-07-24T12:34:01.121Z,6.80
2018-07-24T12:36:13.492Z,7.95
2018-07-24T12:38:25.645Z,7.35
2018-07-24T12:40:37.868Z,7.40
2018-07-24T12:42:50.091Z,7.08
2018-07-24T12:45:02.376Z,7.17
2018-07-24T12:47:14.654Z,7.45
2018-07-24T12:49:26.914Z,6.97
2018-07-24T12:51:39.157Z,7.37
2018-07-24T12:53:51.408Z,6.83
2018-07-24T12:56:03.736Z,6.92
2018-07-24T12:58:16.001Z,7.22
2018-07-24T13:00:28.294Z,7.40
2018-07-24T13:02:40.547Z,8.00
2018-07-24T13:04:52.847Z,7.65
2018-07-24T13:07:05.159Z,7.53
2018-07-24T13:09:17.391Z,6.92
2018-07-24T13:11:29.694Z,6.62
2018-07-24T13:13:41.974Z,6.80
2018-07-24T13:15:54.238Z,6.55
2018-07-24T13:18:06.425Z,6.75
2018-07-24T13:20:18.699Z,6.53
2018-07-24T13:22:30.927Z,6.67
2018-07-24T13:24:43.205Z,5.80
2018-07-24T13:26:55.370Z,6.20
2018-07-24T13:29:07.635Z,6.08
2018-07-24T13:31:19.882Z,5.95
2018-07-24T13:33:32.104Z,6.03
2018-07-24T13:35:44.403Z,6.35
2018-07-24T13:37:56.633Z,6.25
2018-07-24T13:40:08.885Z,5.65
2018-07-24T13:42:21.175Z,6.25
2018-07-24T13:44:33.386Z,6.25
2018-07-24T13:46:45.627Z,6.72
2018-07-24T13:48:57.832Z,5.60
2018-07-24T13:51:10.415Z,6.03
2018-07-24T13:53:22.821Z,6.20
2018-07-24T13:55:35.056Z,5.85
2018-07-24T13:57:47.422Z,6.15
2018-07-24T13:59:59.727Z,5.37
2018-07-24T14:02:12.033Z,5.55
2018-07-24T14:04:24.310Z,6.55
2018-07-24T14:06:36.541Z,5.87
2018-07-24T14:08:48.822Z,5.53
2018-07-24T14:11:01.058Z,5.80
2018-07-24T14:13:13.323Z,5.90
2018-07-24T14:15:25.560Z,5.70
2018-07-24T14:17:38.090Z,6.37
2018-07-24T14:19:50.343Z,6.22
2018-07-24T14:22:02.652Z,5.75
2018-07-24T14:24:14.933Z,5.62
2018-07-24T14:26:27.261Z,6.25
2018-07-24T14:28:39.514Z,6.37
2018-07-24T14:30:51.763Z,5.95
2018-07-24T14:33:04.027Z,5.85
2018-07-24T14:35:16.358Z,5.70
2018-07-24T14:37:28.608Z,5.87
2018-07-24T14:39:40.847Z,5.65
2018-07-24T14:41:53.051Z,5.72
2018-07-24T14:44:05.406Z,5.97
2018-07-24T14:46:17.659Z,5.53
2018-07-24T14:48:30.240Z,5.85
2018-07-24T14:50:42.431Z,5.58
2018-07-24T14:52:54.694Z,5.60
2018-07-24T14:55:06.967Z,5.35
2018-07-24T14:57:19.178Z,5.35
2018-07-24T14:59:31.428Z,5.62
2018-07-24T15:01:43.674Z,5.85
2018-07-24T15:03:55.898Z,5.20
2018-07-24T15:06:08.151Z,5.90
2018-07-24T15:08:20.443Z,5.90
2018-07-24T15:10:32.695Z,6.12
2018-07-24T15:12:44.923Z,6.87
2018-07-24T15:14:57.223Z,6.35
2018-07-24T15:17:09.653Z,6.42
2018-07-24T15:19:21.830Z,6.15
2018-07-24T15:21:34.051Z,6.10
2018-07-24T15:23:46.324Z,5.95
2018-07-24T15:25:58.561Z,5.72
2018-07-24T15:28:10.836Z,5.55
2018-07-24T15:30:23.098Z,5.35
2018-07-24T15:32:35.407Z,5.87
2018-07-24T15:34:47.673Z,5.92
2018-07-24T15:36:59.940Z,5.42
2018-07-24T15:39:13.520Z,5.28
2018-07-24T15:41:25.811Z,5.03
2018-07-24T15:43:37.995Z,5.20
2018-07-24T15:45:50.313Z,5.40
2018-07-24T15:48:02.511Z,5.72
2018-07-24T15:50:14.767Z,4.90
2018-07-24T15:52:27.064Z,5.37
2018-07-24T15:54:39.259Z,5.42
2018-07-24T15:56:51.490Z,5.20
2018-07-24T15:59:03.780Z,5.47
2018-07-24T16:01:16.004Z,5.42
2018-07-24T16:03:28.297Z,5.95
2018-07-24T16:05:40.587Z,5.12
2018-07-24T16:07:52.833Z,5.28
2018-07-24T16:10:05.210Z,5.05
2018-07-24T16:12:17.466Z,5.92
2018-07-24T16:14:29.688Z,5.33
2018-07-24T16:16:41.917Z,5.30
2018-07-24T16:18:54.122Z,6.20
2018-07-24T16:21:06.509Z,5.83
2018-07-24T16:23:18.759Z,5.40
2018-07-24T16:25:31.027Z,5.87
2018-07-24T16:27:43.239Z,5.28
2018-07-24T16:29:55.472Z,6.28
2018-07-24T16:32:07.697Z,5.78
2018-07-24T16:34:19.926Z,6.12
2018-07-24T16:36:32.218Z,6.03
2018-07-24T16:38:44.427Z,5.87
2018-07-24T16:40:56.673Z,6.40
2018-07-24T16:43:08.910Z,6.62
2018-07-24T16:45:21.160Z,6.03
2018-07-24T16:47:33.392Z,6.85
2018-07-24T16:49:45.696Z,6.08
2018-07-24T16:51:57.974Z,5.85
2018-07-24T16:54:10.207Z,5.28
2018-07-24T16:56:22.468Z,6.15
2018-07-24T16:58:34.746Z,5.72
2018-07-24T17:00:46.959Z,5.20
2018-07-24T17:02:59.316Z,5.80
2018-07-24T17:05:11.502Z,5.95
2018-07-24T17:07:23.726Z,6.33
2018-07-24T17:09:35.963Z,6.53
2018-07-24T17:11:48.240Z,6.95
2018-07-24T17:14:00.599Z,6.62
2018-07-24T17:16:12.846Z,6.55
2018-07-24T17:18:25.095Z,5.97
2018-07-24T17:20:37.366Z,5.47
2018-07-24T17:22:49.687Z,5.53
2018-07-24T17:25:02.069Z,6.28
2018-07-24T17:27:14.272Z,5.72
2018-07-24T17:29:26.497Z,6.35
2018-07-24T17:31:38.755Z,5.72
2018-07-24T17:33:50.996Z,5.55
2018-07-24T17:36:03.513Z,5.33
2018-07-24T17:38:15.671Z,5.87
2018-07-24T17:40:27.981Z,5.53
2018-07-24T17:42:40.260Z,6.35
2018-07-24T17:44:52.520Z,6.20
2018-07-24T17:47:04.824Z,6.45
2018-07-24T17:49:17.108Z,5.78
2018-07-24T17:51:29.297Z,6.42
2018-07-24T17:53:41.589Z,5.80
2018-07-24T17:55:53.862Z,6.40
2018-07-24T17:58:06.107Z,6.37
2018-07-24T18:00:18.405Z,6.17
2018-07-24T18:02:30.674Z,4.55
2018-07-24T18:04:42.986Z,4.58
2018-07-24T18:06:55.270Z,6.08
2018-07-24T18:09:09.273Z,5.80
2018-07-24T18:11:21.643Z,6.35
2018-07-24T18:13:33.939Z,6.10
2018-07-24T18:15:46.260Z,5.10
2018-07-24T18:17:58.503Z,6.53
2018-07-24T18:20:10.711Z,5.40
2018-07-24T18:22:22.954Z,5.97
2018-07-24T18:24:35.206Z,6.35
2018-07-24T18:26:47.535Z,6.72
2018-07-24T18:28:59.782Z,7.00
2018-07-24T18:31:12.005Z,7.12
2018-07-24T18:33:24.364Z,7.43
2018-07-24T18:35:36.587Z,7.47
2018-07-24T18:37:48.885Z,7.60
2018-07-24T18:40:01.119Z,8.00
2018-07-24T18:42:13.460Z,7.57
2018-07-24T18:44:25.704Z,7.57
2018-07-24T18:46:37.979Z,8.57
2018-07-24T18:48:50.194Z,7.60
2018-07-24T18:51:02.418Z,8.70
2018-07-24T18:53:14.718Z,7.90
2018-07-24T18:55:26.971Z,7.60
2018-07-24T18:57:39.255Z,8.17
2018-07-24T18:59:51.620Z,7.57
2018-07-24T19:02:03.862Z,8.10
2018-07-24T19:04:16.099Z,7.90
2018-07-24T19:06:28.439Z,7.70
2018-07-24T19:08:40.714Z,8.73
2018-07-24T19:10:52.964Z,7.97
2018-07-24T19:13:05.193Z,8.50
2018-07-24T19:15:17.451Z,8.50
2018-07-24T19:17:29.734Z,8.07
2018-07-24T19:19:41.980Z,8.07
2018-07-24T19:21:54.311Z,8.13
2018-07-24T19:24:06.584Z,8.27
2018-07-24T19:26:18.827Z,8.37
2018-07-24T19:28:31.400Z,9.37
2018-07-24T19:30:43.632Z,8.67
2018-07-24T19:32:55.878Z,8.77
2018-07-24T19:35:08.140Z,8.20
2018-07-24T19:37:20.380Z,8.30
2018-07-24T19:39:32.624Z,8.30
2018-07-24T19:41:44.845Z,8.33
2018-07-24T19:43:57.117Z,7.90
2018-07-24T19:46:09.359Z,8.40
2018-07-24T19:48:21.611Z,8.60
2018-07-24T19:50:33.873Z,8.87
2018-07-24T19:52:46.115Z,8.13
2018-07-24T19:54:58.400Z,7.70
2018-07-24T19:57:10.674Z,8.33
2018-07-24T19:59:22.928Z,9.37
2018-07-24T20:01:35.193Z,9.93
2018-07-24T20:03:47.444Z,8.83
2018-07-24T20:05:59.663Z,8.90
2018-07-24T20:08:11.906Z,9.70
2018-07-24T20:10:24.136Z,8.27
2018-07-24T20:12:36.347Z,7.60
2018-07-24T20:14:48.918Z,8.57
2018-07-24T20:17:01.125Z,8.03
2018-07-24T20:19:13.394Z,8.87
2018-07-24T20:21:25.650Z,8.30
2018-07-24T20:23:38.037Z,8.53
2018-07-24T20:25:50.251Z,8.67
2018-07-24T20:28:02.539Z,8.33
2018-07-24T20:30:14.834Z,8.03
2018-07-24T20:32:27.090Z,6.20
2018-07-24T20:34:39.353Z,7.43
2018-07-24T20:36:51.562Z,7.77
2018-07-24T20:39:07.331Z,7.93
2018-07-24T20:41:19.616Z,7.73
2018-07-24T20:43:31.938Z,8.47
2018-07-24T20:45:44.187Z,7.70
2018-07-24T20:47:56.383Z,8.27
2018-07-24T20:50:08.696Z,8.40
2018-07-24T20:52:21.014Z,7.83
2018-07-24T20:54:33.278Z,7.70
2018-07-24T20:56:45.483Z,7.90
2018-07-24T20:58:57.766Z,6.90
2018-07-24T21:01:10.062Z,8.53
2018-07-24T21:03:22.482Z,7.50
2018-07-24T21:05:34.676Z,7.63
2018-07-24T21:07:47.004Z,8.17
2018-07-24T21:09:59.238Z,7.70
2018-07-24T21:12:11.487Z,7.80
2018-07-24T21:14:23.766Z,7.50
2018-07-24T21:16:36.046Z,7.80
2018-07-24T21:18:48.544Z,8.07
2018-07-24T21:21:00.849Z,7.20
2018-07-24T21:23:13.170Z,7.10
2018-07-24T21:25:25.416Z,8.10
2018-07-24T21:27:37.702Z,7.73
2018-07-24T21:29:49.970Z,7.40
2018-07-24T21:32:02.264Z,8.17
2018-07-24T21:34:14.516Z,7.43
2018-07-24T21:36:26.822Z,7.57
2018-07-24T21:38:39.124Z,7.43
2018-07-24T21:40:51.439Z,7.87
2018-07-24T21:43:03.718Z,7.80
2018-07-24T21:45:15.990Z,8.00
2018-07-24T21:47:28.250Z,7.83
2018-07-24T21:49:40.535Z,8.53
2018-07-24T21:51:52.835Z,9.10
2018-07-24T21:54:05.184Z,8.67
2018-07-24T21:56:17.473Z,8.30
2018-07-24T21:58:29.699Z,8.60
2018-07-24T22:00:41.970Z,8.57
2018-07-24T22:02:54.235Z,8.97
2018-07-24T22:05:06.468Z,8.60
2018-07-24T22:07:18.716Z,9.00
2018-07-24T22:09:30.925Z,9.03
2018-07-24T22:11:43.191Z,9.23
2018-07-24T22:13:55.526Z,8.67
2018-07-24T22:16:07.800Z,8.90
2018-07-24T22:18:20.044Z,9.50
2018-07-24T22:20:32.289Z,8.30
2018-07-24T22:22:44.595Z,9.17
2018-07-24T22:24:56.863Z,8.60
2018-07-24T22:27:09.103Z,9.03
2018-07-24T22:29:21.627Z,9.00
2018-07-24T22:31:33.859Z,9.07
2018-07-24T22:33:46.119Z,9.33
2018-07-24T22:35:58.306Z,9.63
2018-07-24T22:38:10.611Z,9.20
2018-07-24T22:40:22.929Z,9.83
2018-07-24T22:42:35.152Z,8.43
2018-07-24T22:44:47.380Z,8.43
2018-07-24T22:46:59.615Z,9.30
2018-07-24T22:49:11.851Z,9.43
2018-07-24T22:51:24.104Z,10.50
2018-07-24T22:53:36.360Z,9.80
2018-07-24T22:55:48.547Z,9.70
2018-07-24T22:58:00.726Z,10.00
2018-07-24T23:00:13.066Z,9.43
2018-07-24T23:02:25.324Z,9.80
2018-07-24T23:04:37.642Z,9.20
2018-07-24T23:06:49.941Z,10.33
2018-07-24T23:09:02.208Z,9.40
2018-07-24T23:11:14.506Z,8.70
2018-07-24T23:13:26.723Z,9.30
2018-07-24T23:15:38.989Z,9.63
2018-07-24T23:17:51.162Z,8.97
2018-07-24T23:20:03.438Z,9.53
2018-07-24T23:22:15.691Z,9.27
2018-07-24T23:24:27.947Z,10.13
2018-07-24T23:26:40.183Z,9.53
2018-07-24T23:28:52.464Z,8.60
2018-07-24T23:31:04.767Z,9.27
2018-07-24T23:33:16.996Z,9.20
2018-07-24T23:35:29.175Z,9.30
2018-07-24T23:37:41.410Z,9.53
2018-07-24T23:39:53.608Z,9.57
2018-07-24T23:42:05.851Z,9.37
2018-07-24T23:44:18.022Z,9.13
2018-07-24T23:46:30.227Z,9.83
2018-07-24T23:48:42.431Z,9.03
2018-07-24T23:50:54.680Z,10.07
2018-07-24T23:53:06.916Z,9.53
2018-07-24T23:55:19.099Z,9.73
2018-07-24T23:57:31.306Z,9.57
2018-07-24T23:59:43.543Z,10.13
